Time;durP1;ratioP1;P1;durP2;ratioP2;P2;SDS_P1;SDS_P2;PMS_P1;PMS_P2;Temp;Humidity;BMP_temperature;BMP_pressure;BME280_temperature;BME280_humidity;BME280_pressure;Samples;Min_cycle;Max_cycle;Signal;HPM_P1;HPM_P2
2024/01/08 00:00:05;;;;;;;6.13;4.50;;;;;;;;;;4995751;28;20823;-62
2024/01/08 00:02:30;;;;;;;5.20;4.00;;;;;;;;;;5003167;28;20435;-62
2024/01/08 00:04:56;;;;;;;5.83;4.20;;;;;;;;;;5002179;28;20397;-62
2024/01/08 00:07:21;;;;;;;6.70;4.03;;;;;;;;;;5001411;28;20433;-62
2024/01/08 00:09:46;;;;;;;5.63;4.13;;;;;;;;;;5002187;28;20401;-62
2024/01/08 00:12:11;;;;;;;6.57;4.10;;;;;;;;;;5000602;28;20403;-62
2024/01/08 00:14:38;;;;;;;5.20;3.83;;;;;;;;;;5001730;28;20873;-62
2024/01/08 00:17:03;;;;;;;5.60;3.90;;;;;;;;;;4993680;28;20427;-62
2024/01/08 00:19:28;;;;;;;6.40;4.00;;;;;;;;;;4993091;28;20629;-62
2024/01/08 00:21:53;;;;;;;7.73;4.10;;;;;;;;;;4993996;28;20620;-62
2024/01/08 00:24:19;;;;;;;5.70;3.63;;;;;;;;;;5000441;28;20412;-62
2024/01/08 00:26:44;;;;;;;5.30;3.60;;;;;;;;;;5001203;28;20462;-62
2024/01/08 00:29:10;;;;;;;6.82;4.10;;;;;;;;;;5001061;28;20404;-62
2024/01/08 00:31:35;;;;;;;5.30;3.80;;;;;;;;;;5002230;28;20432;-62
2024/01/08 00:34:00;;;;;;;5.40;3.45;;;;;;;;;;5000420;28;20405;-67
2024/01/08 00:36:26;;;;;;;6.43;4.00;;;;;;;;;;5002058;28;20884;-62
2024/01/08 00:38:51;;;;;;;5.50;3.57;;;;;;;;;;4996561;28;20397;-62
2024/01/08 00:41:16;;;;;;;7.27;4.10;;;;;;;;;;4992288;28;20427;-62
2024/01/08 00:43:41;;;;;;;5.07;3.80;;;;;;;;;;4993538;28;20420;-62
2024/01/08 00:46:07;;;;;;;5.17;3.77;;;;;;;;;;4998573;28;20401;-63
2024/01/08 00:48:32;;;;;;;5.43;3.50;;;;;;;;;;5000760;28;20439;-62
2024/01/08 00:50:58;;;;;;;5.57;3.80;;;;;;;;;;5001408;28;20412;-61
2024/01/08 00:53:23;;;;;;;5.18;3.38;;;;;;;;;;5001055;28;20412;-62
2024/01/08 00:55:49;;;;;;;5.90;3.90;;;;;;;;;;5000969;28;20493;-61
2024/01/08 00:58:14;;;;;;;5.30;3.80;;;;;;;;;;5001123;28;20396;-61
2024/01/08 01:00:39;;;;;;;7.13;4.45;;;;;;;;;;4999193;28;20406;-62
2024/01/08 01:03:04;;;;;;;7.83;4.90;;;;;;;;;;4992197;28;20482;-62
2024/01/08 01:05:30;;;;;;;8.37;4.67;;;;;;;;;;5004425;28;20983;-62
2024/01/08 01:07:55;;;;;;;11.33;5.73;;;;;;;;;;5008368;28;20414;-62
2024/01/08 01:10:20;;;;;;;6.87;4.43;;;;;;;;;;5019133;28;20427;-62
2024/01/08 01:12:46;;;;;;;7.23;4.60;;;;;;;;;;5011550;28;20415;-62
2024/01/08 01:15:11;;;;;;;6.23;4.20;;;;;;;;;;5019936;28;20402;-62
2024/01/08 01:17:36;;;;;;;7.07;4.40;;;;;;;;;;5013745;28;20417;-62
2024/01/08 01:20:03;;;;;;;6.70;4.40;;;;;;;;;;5000981;28;20966;-62
2024/01/08 01:22:28;;;;;;;7.13;4.40;;;;;;;;;;5019221;28;20414;-61
2024/01/08 01:24:53;;;;;;;5.73;4.13;;;;;;;;;;5012878;28;20415;-62
2024/01/08 01:27:19;;;;;;;6.03;4.30;;;;;;;;;;5011684;28;20521;-62
2024/01/08 01:29:44;;;;;;;6.43;4.60;;;;;;;;;;5010438;28;20895;-61
2024/01/08 01:32:09;;;;;;;6.57;4.15;;;;;;;;;;4999688;28;20504;-61
2024/01/08 01:34:35;;;;;;;5.90;4.20;;;;;;;;;;5001492;28;20749;-62
2024/01/08 01:37:00;;;;;;;6.53;4.32;;;;;;;;;;4999859;28;20899;-67
2024/01/08 01:39:25;;;;;;;7.30;4.50;;;;;;;;;;5001653;28;20399;-62
2024/01/08 01:41:51;;;;;;;7.20;4.50;;;;;;;;;;5001416;28;20416;-62
2024/01/08 01:44:16;;;;;;;6.93;4.35;;;;;;;;;;5003434;28;20760;-62
2024/01/08 01:46:48;;;;;;;7.67;4.83;;;;;;;;;;4999218;28;20404;-62
2024/01/08 01:49:13;;;;;;;6.47;4.30;;;;;;;;;;5013150;28;20406;-62
2024/01/08 01:51:40;;;;;;;6.83;4.73;;;;;;;;;;4995949;28;20431;-61
2024/01/08 01:54:05;;;;;;;6.25;4.20;;;;;;;;;;5032973;28;20409;-62
2024/01/08 01:56:30;;;;;;;6.73;4.73;;;;;;;;;;5004562;28;20405;-61
2024/01/08 01:58:56;;;;;;;7.33;4.50;;;;;;;;;;5003874;28;20404;-61
2024/01/08 02:01:21;;;;;;;6.47;4.50;;;;;;;;;;5003867;28;20448;-62
2024/01/08 02:03:46;;;;;;;6.07;4.27;;;;;;;;;;5004148;28;20466;-61
2024/01/08 02:06:11;;;;;;;7.33;4.50;;;;;;;;;;5003316;28;20434;-62
2024/01/08 02:08:37;;;;;;;7.37;4.70;;;;;;;;;;5001587;28;20448;-62
2024/01/08 02:11:03;;;;;;;6.93;4.63;;;;;;;;;;4995890;28;20408;-62
2024/01/08 02:13:28;;;;;;;7.67;4.70;;;;;;;;;;4995432;28;20405;-61
2024/01/08 02:15:53;;;;;;;6.93;4.30;;;;;;;;;;4999047;28;20405;-61
2024/01/08 02:18:19;;;;;;;7.07;4.53;;;;;;;;;;5031098;28;20966;-62
2024/01/08 02:20:44;;;;;;;7.35;4.50;;;;;;;;;;5005377;28;20512;-61
2024/01/08 02:23:10;;;;;;;7.10;4.73;;;;;;;;;;5003220;28;20425;-62
2024/01/08 02:25:36;;;;;;;8.20;4.85;;;;;;;;;;5003438;28;20405;-62
2024/01/08 02:28:01;;;;;;;6.63;4.40;;;;;;;;;;5005504;28;20437;-63
2024/01/08 02:30:27;;;;;;;8.00;4.70;;;;;;;;;;5012247;28;20427;-62
2024/01/08 02:32:52;;;;;;;7.33;4.60;;;;;;;;;;4995332;28;20419;-61
2024/01/08 02:35:17;;;;;;;6.70;4.30;;;;;;;;;;4995923;28;20459;-61
2024/01/08 02:37:43;;;;;;;7.50;4.70;;;;;;;;;;4995938;28;20413;-61
2024/01/08 02:40:08;;;;;;;7.30;4.60;;;;;;;;;;5002209;28;20787;-62
2024/01/08 02:42:33;;;;;;;7.67;4.47;;;;;;;;;;5003777;28;20389;-62
2024/01/08 02:45:00;;;;;;;6.53;4.37;;;;;;;;;;5003120;28;20911;-61
2024/01/08 02:47:25;;;;;;;6.47;4.10;;;;;;;;;;5002505;28;20855;-61
2024/01/08 02:49:51;;;;;;;7.23;4.60;;;;;;;;;;5003282;28;20476;-61
2024/01/08 02:52:16;;;;;;;7.43;4.50;;;;;;;;;;5003325;28;20543;-62
2024/01/08 02:54:41;;;;;;;7.63;4.47;;;;;;;;;;4997095;28;20413;-61
2024/01/08 02:57:06;;;;;;;6.30;4.10;;;;;;;;;;4994750;28;21011;-62
2024/01/08 02:59:32;;;;;;;7.13;4.30;;;;;;;;;;4994971;28;20397;-61
2024/01/08 03:01:57;;;;;;;6.90;4.40;;;;;;;;;;5000135;28;21090;-61
2024/01/08 03:04:22;;;;;;;7.17;4.33;;;;;;;;;;5002559;28;20389;-62
2024/01/08 03:06:48;;;;;;;7.77;4.47;;;;;;;;;;5010209;28;20539;-61
2024/01/08 03:09:13;;;;;;;6.50;4.45;;;;;;;;;;5021522;28;20476;-62
2024/01/08 03:11:38;;;;;;;7.47;4.33;;;;;;;;;;5011206;28;20417;-62
2024/01/08 03:14:03;;;;;;;6.70;4.63;;;;;;;;;;5002427;28;20927;-62
2024/01/08 03:16:29;;;;;;;7.97;4.30;;;;;;;;;;4999556;28;20408;-61
2024/01/08 03:18:54;;;;;;;6.10;4.15;;;;;;;;;;4995242;28;20946;-61
2024/01/08 03:21:19;;;;;;;7.37;4.10;;;;;;;;;;5002790;28;20400;-62
2024/01/08 03:23:45;;;;;;;7.13;4.13;;;;;;;;;;4996662;28;20424;-61
2024/01/08 03:26:10;;;;;;;6.70;4.40;;;;;;;;;;5002076;28;20504;-62
2024/01/08 03:28:35;;;;;;;8.70;4.37;;;;;;;;;;5003015;28;20904;-62
2024/01/08 03:31:01;;;;;;;6.97;4.37;;;;;;;;;;5001290;28;20409;-62
2024/01/08 03:33:27;;;;;;;7.55;4.38;;;;;;;;;;5016338;28;20409;-61
2024/01/08 03:35:53;;;;;;;6.00;3.90;;;;;;;;;;5002709;28;20408;-61
2024/01/08 03:38:18;;;;;;;7.70;4.30;;;;;;;;;;5000704;28;20417;-62
2024/01/08 03:40:44;;;;;;;7.27;4.20;;;;;;;;;;4995215;28;20451;-62
2024/01/08 03:43:09;;;;;;;7.28;4.10;;;;;;;;;;4993551;28;20420;-62
2024/01/08 03:45:35;;;;;;;7.00;4.38;;;;;;;;;;4994682;28;20447;-62
2024/01/08 03:48:00;;;;;;;6.57;4.40;;;;;;;;;;5001512;28;20524;-66
2024/01/08 03:50:25;;;;;;;8.03;4.60;;;;;;;;;;5001955;28;20756;-61
2024/01/08 03:52:51;;;;;;;8.13;4.80;;;;;;;;;;5021370;28;20601;-61
2024/01/08 03:55:16;;;;;;;6.43;4.40;;;;;;;;;;5009664;28;20397;-62
2024/01/08 03:57:41;;;;;;;8.17;4.57;;;;;;;;;;5002781;28;20396;-61
2024/01/08 04:00:07;;;;;;;7.60;4.70;;;;;;;;;;5029596;28;20453;-62
2024/01/08 04:02:33;;;;;;;8.47;4.80;;;;;;;;;;5031230;28;20403;-61
2024/01/08 04:04:58;;;;;;;8.63;5.32;;;;;;;;;;5018512;28;20417;-62
2024/01/08 04:07:23;;;;;;;7.80;4.93;;;;;;;;;;5000951;28;20389;-61
2024/01/08 04:09:48;;;;;;;7.90;5.20;;;;;;;;;;4993614;28;20490;-62
2024/01/08 04:12:14;;;;;;;8.10;5.43;;;;;;;;;;4993391;28;20413;-62
2024/01/08 04:14:39;;;;;;;9.07;5.03;;;;;;;;;;4995076;28;20505;-61
2024/01/08 04:17:05;;;;;;;8.10;4.90;;;;;;;;;;5001116;28;20409;-62
2024/01/08 04:19:31;;;;;;;7.97;5.20;;;;;;;;;;5000942;28;21569;-62
2024/01/08 04:21:56;;;;;;;8.07;5.07;;;;;;;;;;5003513;28;20408;-62
2024/01/08 04:24:21;;;;;;;8.90;5.50;;;;;;;;;;5015346;28;20459;-62
2024/01/08 04:26:46;;;;;;;8.48;5.10;;;;;;;;;;5001654;28;20420;-62
2024/01/08 04:29:12;;;;;;;8.30;5.10;;;;;;;;;;5013483;28;20409;-62
2024/01/08 04:31:37;;;;;;;8.80;5.30;;;;;;;;;;4996100;28;20420;-61
2024/01/08 04:34:02;;;;;;;8.30;5.60;;;;;;;;;;4992840;28;20416;-62
2024/01/08 04:36:28;;;;;;;8.60;5.40;;;;;;;;;;4993486;28;20967;-62
2024/01/08 04:38:53;;;;;;;8.40;5.07;;;;;;;;;;4999959;28;20412;-61
2024/01/08 04:41:19;;;;;;;8.43;5.60;;;;;;;;;;5000121;28;20405;-62
2024/01/08 04:43:44;;;;;;;8.50;5.20;;;;;;;;;;5010068;28;20849;-62
2024/01/08 04:46:10;;;;;;;8.63;5.33;;;;;;;;;;5000667;28;20409;-62
2024/01/08 04:48:35;;;;;;;9.10;5.67;;;;;;;;;;5001860;28;20981;-61
2024/01/08 04:51:00;;;;;;;8.98;5.72;;;;;;;;;;5000566;28;20419;-65
2024/01/08 04:53:26;;;;;;;9.20;5.60;;;;;;;;;;4997094;28;20483;-62
2024/01/08 04:55:51;;;;;;;8.43;5.43;;;;;;;;;;4994105;28;20407;-62
2024/01/08 04:58:16;;;;;;;8.95;5.80;;;;;;;;;;4992657;28;20408;-62
2024/01/08 05:00:42;;;;;;;8.43;5.60;;;;;;;;;;4997308;28;20832;-62
2024/01/08 05:03:09;;;;;;;8.23;5.90;;;;;;;;;;5000530;28;20412;-62
2024/01/08 05:05:34;;;;;;;10.10;6.10;;;;;;;;;;5000970;28;20419;-62
2024/01/08 05:08:00;;;;;;;8.73;5.70;;;;;;;;;;5000372;28;20401;-61
2024/01/08 05:10:25;;;;;;;9.90;6.10;;;;;;;;;;5000631;28;20952;-61
2024/01/08 05:12:50;;;;;;;10.10;6.10;;;;;;;;;;5000876;28;20900;-61
2024/01/08 05:15:15;;;;;;;9.67;6.30;;;;;;;;;;4999361;28;20397;-62
2024/01/08 05:17:41;;;;;;;10.27;6.23;;;;;;;;;;4995774;28;21173;-61
2024/01/08 05:20:06;;;;;;;9.90;6.10;;;;;;;;;;4996894;28;20442;-62
2024/01/08 05:22:32;;;;;;;11.43;6.00;;;;;;;;;;4997212;28;20458;-62
2024/01/08 05:24:57;;;;;;;9.47;6.13;;;;;;;;;;5004707;28;20492;-62
2024/01/08 05:27:22;;;;;;;10.50;6.20;;;;;;;;;;5004770;28;20879;-61
2024/01/08 05:29:48;;;;;;;9.37;6.27;;;;;;;;;;5004508;28;20935;-62
2024/01/08 05:32:13;;;;;;;9.60;5.97;;;;;;;;;;5004805;28;20400;-62
2024/01/08 05:34:38;;;;;;;9.10;6.03;;;;;;;;;;5005096;28;20903;-62
2024/01/08 05:37:03;;;;;;;8.90;6.10;;;;;;;;;;5010124;28;20438;-62
2024/01/08 05:39:29;;;;;;;9.57;6.00;;;;;;;;;;5007993;28;20913;-61
2024/01/08 05:41:54;;;;;;;9.00;6.03;;;;;;;;;;4996907;28;20944;-61
2024/01/08 05:44:19;;;;;;;9.90;6.20;;;;;;;;;;4995148;28;20400;-62
2024/01/08 05:46:45;;;;;;;8.47;5.80;;;;;;;;;;5018734;28;20407;-62
2024/01/08 05:49:11;;;;;;;9.68;6.20;;;;;;;;;;5032190;28;20429;-62
2024/01/08 05:51:36;;;;;;;9.60;6.33;;;;;;;;;;5033559;28;20407;-62
2024/01/08 05:54:02;;;;;;;8.80;5.50;;;;;;;;;;5033736;28;20467;-62
2024/01/08 05:56:27;;;;;;;9.77;6.40;;;;;;;;;;5034276;28;20395;-61
2024/01/08 05:58:52;;;;;;;9.75;5.80;;;;;;;;;;5033384;28;20956;-61
2024/01/08 06:01:17;;;;;;;10.47;6.23;;;;;;;;;;5033682;28;20406;-62
2024/01/08 06:03:43;;;;;;;9.07;5.80;;;;;;;;;;5007405;28;20413;-61
2024/01/08 06:06:11;;;;;;;8.90;6.00;;;;;;;;;;5003856;28;20396;-62
2024/01/08 06:08:38;;;;;;;9.30;5.85;;;;;;;;;;5004522;28;20400;-62
2024/01/08 06:11:03;;;;;;;8.68;5.70;;;;;;;;;;5003327;28;20405;-62
2024/01/08 06:13:28;;;;;;;8.97;6.57;;;;;;;;;;5004648;28;20401;-62
2024/01/08 06:15:54;;;;;;;9.03;6.20;;;;;;;;;;5004658;28;20404;-62
2024/01/08 06:18:19;;;;;;;8.73;5.60;;;;;;;;;;4998064;28;20404;-62
2024/01/08 06:20:46;;;;;;;8.87;5.60;;;;;;;;;;4996063;28;20641;-62
2024/01/08 06:23:11;;;;;;;9.10;5.80;;;;;;;;;;4995283;28;21059;-62
2024/01/08 06:25:36;;;;;;;8.70;5.33;;;;;;;;;;5001590;28;20497;-62
2024/01/08 06:28:02;;;;;;;9.37;6.20;;;;;;;;;;5017789;28;20913;-62
2024/01/08 06:30:27;;;;;;;9.20;6.00;;;;;;;;;;5033433;28;20407;-62
2024/01/08 06:32:52;;;;;;;9.37;5.87;;;;;;;;;;5032832;28;20933;-61
2024/01/08 06:35:18;;;;;;;9.37;5.53;;;;;;;;;;5033131;28;20400;-61
2024/01/08 06:37:43;;;;;;;9.30;5.70;;;;;;;;;;5033350;28;20486;-62
2024/01/08 06:40:08;;;;;;;9.52;5.60;;;;;;;;;;5032089;28;20407;-62
2024/01/08 06:42:34;;;;;;;8.07;5.30;;;;;;;;;;5032598;28;20407;-62
2024/01/08 06:44:59;;;;;;;8.70;5.50;;;;;;;;;;5032707;28;20411;-62
2024/01/08 06:47:24;;;;;;;8.43;5.37;;;;;;;;;;5031810;28;20410;-62
2024/01/08 06:49:50;;;;;;;9.10;5.73;;;;;;;;;;5032623;28;20438;-62
2024/01/08 06:52:15;;;;;;;8.60;5.03;;;;;;;;;;5031497;28;20415;-63
2024/01/08 06:54:40;;;;;;;7.90;5.30;;;;;;;;;;5032344;28;20403;-62
2024/01/08 06:57:05;;;;;;;8.83;5.23;;;;;;;;;;5032375;28;20404;-63
2024/01/08 06:59:31;;;;;;;9.40;5.10;;;;;;;;;;5032957;28;20387;-62
2024/01/08 07:01:56;;;;;;;7.97;4.80;;;;;;;;;;5031156;28;20495;-62
2024/01/08 07:04:22;;;;;;;8.70;4.93;;;;;;;;;;5032180;28;20376;-62
2024/01/08 07:06:47;;;;;;;8.33;5.00;;;;;;;;;;5032903;28;20801;-63
2024/01/08 07:09:12;;;;;;;8.57;5.03;;;;;;;;;;5031637;28;20811;-63
2024/01/08 07:11:37;;;;;;;8.20;5.03;;;;;;;;;;5032848;28;20406;-63
2024/01/08 07:14:03;;;;;;;8.53;5.47;;;;;;;;;;5031812;28;20414;-63
2024/01/08 07:16:28;;;;;;;7.72;4.93;;;;;;;;;;5032933;28;20414;-63
2024/01/08 07:18:54;;;;;;;7.57;4.87;;;;;;;;;;5032813;28;20410;-63
2024/01/08 07:21:20;;;;;;;8.13;4.68;;;;;;;;;;5031435;28;20414;-63
2024/01/08 07:23:45;;;;;;;7.40;4.70;;;;;;;;;;5032253;28;20410;-63
2024/01/08 07:26:11;;;;;;;7.90;4.93;;;;;;;;;;5032049;28;20395;-63
2024/01/08 07:28:36;;;;;;;7.67;4.50;;;;;;;;;;5021811;28;20484;-63
2024/01/08 07:31:03;;;;;;;7.22;4.80;;;;;;;;;;5026557;28;20407;-63
2024/01/08 07:33:29;;;;;;;8.43;4.78;;;;;;;;;;5032403;28;20396;-63
2024/01/08 07:35:54;;;;;;;8.17;5.07;;;;;;;;;;5031405;28;20395;-63
2024/01/08 07:38:21;;;;;;;8.05;5.03;;;;;;;;;;5031553;28;20399;-62
2024/01/08 07:40:47;;;;;;;8.20;4.38;;;;;;;;;;5031285;28;20724;-62
2024/01/08 07:43:12;;;;;;;8.43;4.70;;;;;;;;;;5030991;28;20419;-63
2024/01/08 07:45:37;;;;;;;7.37;4.80;;;;;;;;;;5032224;28;20395;-63
2024/01/08 07:48:03;;;;;;;7.60;4.47;;;;;;;;;;5031873;28;20403;-63
2024/01/08 07:50:28;;;;;;;8.50;4.77;;;;;;;;;;5030981;28;20969;-62
2024/01/08 07:52:53;;;;;;;7.80;4.60;;;;;;;;;;5031509;28;20465;-61
2024/01/08 07:55:19;;;;;;;8.57;4.93;;;;;;;;;;5021254;28;20798;-62
2024/01/08 07:57:45;;;;;;;7.32;4.72;;;;;;;;;;5037040;28;20902;-62
2024/01/08 08:00:11;;;;;;;8.23;5.17;;;;;;;;;;5031696;28;20407;-61
2024/01/08 08:02:37;;;;;;;7.30;4.85;;;;;;;;;;5031748;28;20406;-61
2024/01/08 08:05:02;;;;;;;7.93;4.83;;;;;;;;;;5028570;28;20399;-62
2024/01/08 08:07:28;;;;;;;6.97;4.70;;;;;;;;;;5030054;28;20402;-61
2024/01/08 08:09:54;;;;;;;7.38;4.60;;;;;;;;;;5031417;28;20804;-61
2024/01/08 08:12:19;;;;;;;8.18;4.85;;;;;;;;;;5029337;28;20419;-61
2024/01/08 08:14:47;;;;;;;6.93;4.73;;;;;;;;;;5029439;28;20461;-61
2024/01/08 08:17:12;;;;;;;7.88;4.68;;;;;;;;;;5029289;28;20417;-62
2024/01/08 08:19:40;;;;;;;8.63;5.20;;;;;;;;;;5030325;28;20829;-61
2024/01/08 08:22:05;;;;;;;7.15;4.78;;;;;;;;;;5030787;28;20430;-61
2024/01/08 08:24:30;;;;;;;8.52;4.63;;;;;;;;;;5029509;28;20428;-61
2024/01/08 08:26:56;;;;;;;7.90;5.00;;;;;;;;;;5031465;28;20411;-61
2024/01/08 08:29:21;;;;;;;7.13;4.80;;;;;;;;;;5031019;28;20395;-61
2024/01/08 08:31:46;;;;;;;7.23;4.73;;;;;;;;;;5030798;28;20399;-61
2024/01/08 08:34:11;;;;;;;8.03;5.17;;;;;;;;;;5031051;28;20482;-61
2024/01/08 08:36:39;;;;;;;7.80;5.10;;;;;;;;;;5030969;28;20410;-61
2024/01/08 08:39:05;;;;;;;8.20;5.00;;;;;;;;;;5029648;28;20398;-62
2024/01/08 08:41:31;;;;;;;7.37;5.10;;;;;;;;;;5031208;28;20469;-62
2024/01/08 08:43:57;;;;;;;9.83;5.60;;;;;;;;;;5029508;28;20483;-62
2024/01/08 08:46:22;;;;;;;25.33;15.27;;;;;;;;;;5029760;28;20838;-61
2024/01/08 08:48:47;;;;;;;15.33;10.47;;;;;;;;;;5018447;28;20407;-61
2024/01/08 08:51:13;;;;;;;13.40;9.17;;;;;;;;;;5015408;28;20398;-61
2024/01/08 08:53:38;;;;;;;13.10;8.57;;;;;;;;;;5017979;28;20391;-61
2024/01/08 08:56:04;;;;;;;9.73;5.97;;;;;;;;;;5018744;28;20442;-61
2024/01/08 08:58:29;;;;;;;9.55;7.32;;;;;;;;;;5015475;28;20406;-62
2024/01/08 09:00:56;;;;;;;8.97;6.20;;;;;;;;;;5019117;28;20759;-61
2024/01/08 09:03:21;;;;;;;8.20;5.72;;;;;;;;;;5016738;28;20615;-61
2024/01/08 09:05:46;;;;;;;9.47;5.50;;;;;;;;;;5017344;28;20486;-62
2024/01/08 09:08:12;;;;;;;10.30;8.17;;;;;;;;;;5012473;28;20801;-62
2024/01/08 09:10:37;;;;;;;8.90;5.70;;;;;;;;;;5016244;28;20399;-61
2024/01/08 09:13:02;;;;;;;8.23;5.15;;;;;;;;;;5017767;28;20426;-62
2024/01/08 09:15:28;;;;;;;7.57;5.20;;;;;;;;;;5015448;28;20395;-62
2024/01/08 09:17:53;;;;;;;9.20;5.70;;;;;;;;;;5019201;28;20431;-61
2024/01/08 09:20:18;;;;;;;9.57;6.10;;;;;;;;;;5017408;28;20407;-61
2024/01/08 09:22:43;;;;;;;8.03;5.60;;;;;;;;;;5014928;28;20407;-62
2024/01/08 09:25:09;;;;;;;9.03;5.50;;;;;;;;;;5013936;28;20410;-62
2024/01/08 09:27:34;;;;;;;8.82;5.57;;;;;;;;;;5019650;28;20407;-61
2024/01/08 09:29:59;;;;;;;8.53;4.80;;;;;;;;;;5012876;28;20844;-62
2024/01/08 09:32:25;;;;;;;9.33;6.07;;;;;;;;;;5015674;28;20391;-63
2024/01/08 09:34:50;;;;;;;9.50;7.00;;;;;;;;;;5018852;28;20406;-62
2024/01/08 09:37:16;;;;;;;7.80;5.40;;;;;;;;;;5018114;28;20391;-62
2024/01/08 09:39:41;;;;;;;6.97;4.77;;;;;;;;;;5015045;28;20490;-61
2024/01/08 09:42:07;;;;;;;8.33;5.07;;;;;;;;;;5017196;28;20399;-63
2024/01/08 09:44:32;;;;;;;8.15;5.18;;;;;;;;;;5015572;28;20401;-61
2024/01/08 09:46:58;;;;;;;8.67;5.00;;;;;;;;;;5016239;28;20429;-62
2024/01/08 09:49:23;;;;;;;8.40;5.33;;;;;;;;;;5013347;28;20449;-61
2024/01/08 09:51:48;;;;;;;8.10;4.90;;;;;;;;;;5019561;28;20395;-62
2024/01/08 09:54:14;;;;;;;7.57;4.70;;;;;;;;;;5015195;28;20459;-63
2024/01/08 09:56:39;;;;;;;9.15;4.97;;;;;;;;;;5015827;28;20399;-62
2024/01/08 09:59:05;;;;;;;7.30;4.63;;;;;;;;;;5015813;28;20407;-62
2024/01/08 10:01:31;;;;;;;7.25;4.65;;;;;;;;;;5018058;28;20846;-62
2024/01/08 10:03:56;;;;;;;7.43;4.53;;;;;;;;;;5017813;28;20410;-62
2024/01/08 10:06:21;;;;;;;7.38;4.70;;;;;;;;;;5018914;28;20390;-62
2024/01/08 10:08:46;;;;;;;6.30;4.50;;;;;;;;;;5022250;28;20425;-61
2024/01/08 10:11:12;;;;;;;6.90;4.57;;;;;;;;;;5018779;28;20430;-62
2024/01/08 10:13:37;;;;;;;8.33;5.10;;;;;;;;;;5019537;28;20414;-62
2024/01/08 10:16:02;;;;;;;7.70;4.85;;;;;;;;;;5016893;28;21002;-62
2024/01/08 10:18:28;;;;;;;10.80;7.07;;;;;;;;;;5025686;28;20489;-62
2024/01/08 10:21:08;;;;;;;8.35;5.35;;;;;;;;;;5021763;28;20399;-61
2024/01/08 10:23:33;;;;;;;8.40;5.57;;;;;;;;;;5019464;28;20405;-62
2024/01/08 10:25:59;;;;;;;9.23;5.50;;;;;;;;;;5018862;28;20411;-62
2024/01/08 10:28:24;;;;;;;8.17;5.30;;;;;;;;;;5018517;28;20391;-62
2024/01/08 10:30:52;;;;;;;7.07;4.77;;;;;;;;;;5020212;28;20391;-62
2024/01/08 10:33:17;;;;;;;7.22;4.20;;;;;;;;;;5017398;28;20490;-62
2024/01/08 10:35:43;;;;;;;7.13;4.40;;;;;;;;;;5019939;28;20483;-63
2024/01/08 10:38:08;;;;;;;6.87;4.10;;;;;;;;;;5020501;28;21177;-63
2024/01/08 10:40:35;;;;;;;5.70;4.00;;;;;;;;;;5020349;28;20383;-64
2024/01/08 10:43:00;;;;;;;6.70;3.90;;;;;;;;;;5019167;28;20415;-62
2024/01/08 10:45:25;;;;;;;6.40;4.20;;;;;;;;;;5020856;28;20387;-62
2024/01/08 10:47:55;;;;;;;7.00;4.20;;;;;;;;;;5017621;28;20403;-62
2024/01/08 10:50:20;;;;;;;7.03;4.20;;;;;;;;;;5014871;28;20808;-62
2024/01/08 10:52:54;;;;;;;7.07;4.03;;;;;;;;;;5020615;28;20400;-62
2024/01/08 10:55:20;;;;;;;6.32;3.95;;;;;;;;;;5020458;28;20401;-62
2024/01/08 10:57:50;;;;;;;6.65;3.88;;;;;;;;;;5017351;28;21132;-61
2024/01/08 11:00:16;;;;;;;7.03;4.18;;;;;;;;;;5020386;28;20754;-62
2024/01/08 11:02:41;;;;;;;6.43;4.30;;;;;;;;;;5020336;28;20411;-61
2024/01/08 11:05:08;;;;;;;7.00;4.17;;;;;;;;;;5047764;28;20403;-62
2024/01/08 11:07:33;;;;;;;5.90;3.97;;;;;;;;;;5031380;28;20430;-61
2024/01/08 11:10:01;;;;;;;6.22;3.70;;;;;;;;;;5063930;28;20469;-61
2024/01/08 11:12:26;;;;;;;28.03;18.67;;;;;;;;;;5031842;28;20395;-61
2024/01/08 11:14:52;;;;;;;9.10;6.73;;;;;;;;;;5030927;28;20414;-61
2024/01/08 11:17:18;;;;;;;22.98;14.63;;;;;;;;;;5063253;28;20400;-60
2024/01/08 11:19:45;;;;;;;8.00;4.40;;;;;;;;;;5032130;28;20794;-61
2024/01/08 11:22:10;;;;;;;6.60;4.03;;;;;;;;;;5030935;28;20426;-61
2024/01/08 11:24:36;;;;;;;7.05;4.00;;;;;;;;;;5032273;28;20443;-62
2024/01/08 11:27:02;;;;;;;8.23;4.40;;;;;;;;;;5031901;28;20410;-62
2024/01/08 11:29:27;;;;;;;9.38;6.53;;;;;;;;;;5031493;28;20402;-61
2024/01/08 11:31:53;;;;;;;10.83;7.30;;;;;;;;;;5030552;28;20410;-61
2024/01/08 11:34:31;;;;;;;12.73;8.63;;;;;;;;;;5031158;28;20895;-62
2024/01/08 11:37:02;;;;;;;8.10;4.57;;;;;;;;;;5031085;28;20406;-61
2024/01/08 11:39:28;;;;;;;9.00;5.20;;;;;;;;;;5046992;28;20422;-62
2024/01/08 11:41:53;;;;;;;11.07;6.37;;;;;;;;;;5030962;28;20399;-62
2024/01/08 11:44:18;;;;;;;9.23;5.37;;;;;;;;;;5031496;28;20419;-61
2024/01/08 11:46:44;;;;;;;20.90;10.20;;;;;;;;;;5032195;28;20411;-62
2024/01/08 11:49:09;;;;;;;20.37;10.23;;;;;;;;;;5042182;28;20436;-62
2024/01/08 11:51:35;;;;;;;5.63;3.57;;;;;;;;;;5052151;28;20923;-62
2024/01/08 11:54:03;;;;;;;5.72;2.90;;;;;;;;;;5051217;28;20390;-63
2024/01/08 11:56:29;;;;;;;5.18;2.80;;;;;;;;;;5045358;28;20381;-62
2024/01/08 11:58:54;;;;;;;6.20;3.10;;;;;;;;;;5051691;28;20523;-62
2024/01/08 12:01:19;;;;;;;5.83;3.93;;;;;;;;;;5043120;28;20714;-62
2024/01/08 12:03:45;;;;;;;4.83;3.00;;;;;;;;;;5030668;28;20411;-62
2024/01/08 12:06:11;;;;;;;4.63;2.77;;;;;;;;;;5031273;28;20452;-62
2024/01/08 12:08:36;;;;;;;5.38;2.90;;;;;;;;;;5041435;28;20394;-62
2024/01/08 12:11:04;;;;;;;6.30;2.83;;;;;;;;;;5050204;28;20404;-62
2024/01/08 12:13:29;;;;;;;4.25;2.35;;;;;;;;;;5050003;28;20431;-62
2024/01/08 12:15:54;;;;;;;4.43;2.30;;;;;;;;;;5034826;28;20481;-62
2024/01/08 12:18:20;;;;;;;5.10;2.50;;;;;;;;;;5029944;28;20463;-62
2024/01/08 12:20:45;;;;;;;4.67;2.67;;;;;;;;;;5031483;28;20914;-62
2024/01/08 12:23:10;;;;;;;4.30;2.67;;;;;;;;;;5030707;28;20427;-62
2024/01/08 12:25:35;;;;;;;4.28;2.50;;;;;;;;;;5030565;28;20402;-61
2024/01/08 12:28:03;;;;;;;5.07;2.50;;;;;;;;;;5029674;28;21469;-62
2024/01/08 12:30:28;;;;;;;5.20;2.27;;;;;;;;;;5030846;28;20419;-62
2024/01/08 12:32:53;;;;;;;4.77;2.33;;;;;;;;;;5031115;28;20454;-61
2024/01/08 12:35:19;;;;;;;4.63;2.20;;;;;;;;;;5028886;28;20399;-61
2024/01/08 12:37:44;;;;;;;4.30;2.30;;;;;;;;;;5030200;28;20399;-62
2024/01/08 12:40:10;;;;;;;4.10;2.33;;;;;;;;;;5030448;28;20410;-62
2024/01/08 12:42:36;;;;;;;4.57;2.67;;;;;;;;;;5030721;28;20413;-62
2024/01/08 12:45:01;;;;;;;5.13;2.37;;;;;;;;;;5029904;28;20410;-62
2024/01/08 12:47:28;;;;;;;4.32;2.58;;;;;;;;;;5031217;28;20809;-62
2024/01/08 12:49:54;;;;;;;4.07;2.40;;;;;;;;;;5031165;28;20434;-62
2024/01/08 12:52:22;;;;;;;4.00;2.27;;;;;;;;;;5029669;28;20890;-61
2024/01/08 12:54:47;;;;;;;3.40;2.22;;;;;;;;;;5031159;28;20549;-61
2024/01/08 12:57:13;;;;;;;5.53;2.80;;;;;;;;;;5030438;28;20962;-61
2024/01/08 12:59:39;;;;;;;3.95;2.20;;;;;;;;;;5030293;28;20403;-61
2024/01/08 13:02:05;;;;;;;4.40;2.27;;;;;;;;;;5045370;28;20441;-61
2024/01/08 13:04:30;;;;;;;4.87;2.60;;;;;;;;;;5031105;28;20898;-61
2024/01/08 13:06:55;;;;;;;6.10;2.90;;;;;;;;;;5029677;28;20407;-61
2024/01/08 13:09:21;;;;;;;5.47;2.70;;;;;;;;;;5030350;28;20387;-61
2024/01/08 13:11:46;;;;;;;4.32;2.55;;;;;;;;;;5030540;28;20411;-61
2024/01/08 13:14:13;;;;;;;4.37;2.57;;;;;;;;;;5039169;28;20399;-61
2024/01/08 13:16:39;;;;;;;5.73;2.77;;;;;;;;;;5033822;28;20399;-61
2024/01/08 13:19:06;;;;;;;5.17;2.60;;;;;;;;;;5030357;28;20747;-61
2024/01/08 13:21:31;;;;;;;5.60;2.67;;;;;;;;;;5029623;28;20395;-62
2024/01/08 13:23:57;;;;;;;5.17;2.53;;;;;;;;;;5034485;28;20429;-62
2024/01/08 13:26:23;;;;;;;5.70;2.80;;;;;;;;;;5050268;28;20910;-62
2024/01/08 13:28:48;;;;;;;5.88;2.60;;;;;;;;;;5049813;28;20401;-62
2024/01/08 13:31:14;;;;;;;5.10;2.33;;;;;;;;;;5038139;28;20395;-62
2024/01/08 13:33:42;;;;;;;4.37;2.30;;;;;;;;;;5030698;28;20430;-62
2024/01/08 13:36:07;;;;;;;4.47;2.50;;;;;;;;;;5029382;28;20391;-63
2024/01/08 13:38:32;;;;;;;4.43;2.57;;;;;;;;;;5032056;28;20477;-62
2024/01/08 13:41:00;;;;;;;5.27;2.33;;;;;;;;;;5033819;28;20405;-63
2024/01/08 13:43:25;;;;;;;4.82;2.40;;;;;;;;;;5033916;28;20439;-63
2024/01/08 13:45:51;;;;;;;4.10;2.30;;;;;;;;;;5034263;28;20457;-62
2024/01/08 13:48:17;;;;;;;4.00;2.27;;;;;;;;;;5032913;28;20402;-62
2024/01/08 13:50:42;;;;;;;4.07;2.20;;;;;;;;;;5034523;28;20407;-63
2024/01/08 13:53:08;;;;;;;4.15;2.20;;;;;;;;;;5033397;28;20400;-63
2024/01/08 13:55:33;;;;;;;5.50;2.15;;;;;;;;;;5033572;28;20443;-63
2024/01/08 13:57:59;;;;;;;4.73;2.37;;;;;;;;;;5034307;28;20922;-62
2024/01/08 14:00:24;;;;;;;3.83;2.23;;;;;;;;;;5033624;28;20410;-63
2024/01/08 14:02:49;;;;;;;3.85;2.00;;;;;;;;;;5033123;28;20891;-63
2024/01/08 14:05:15;;;;;;;4.67;2.20;;;;;;;;;;5032612;28;20890;-63
2024/01/08 14:07:40;;;;;;;4.13;2.13;;;;;;;;;;5033669;28;20457;-62
2024/01/08 14:10:06;;;;;;;5.93;2.43;;;;;;;;;;5032823;28;20395;-63
2024/01/08 14:12:31;;;;;;;4.10;2.50;;;;;;;;;;5034022;28;20486;-62
2024/01/08 14:14:57;;;;;;;5.23;2.33;;;;;;;;;;5033861;28;20403;-62
2024/01/08 14:17:22;;;;;;;4.20;2.30;;;;;;;;;;5032564;28;20866;-62
2024/01/08 14:19:47;;;;;;;4.37;2.27;;;;;;;;;;5033444;28;20414;-63
2024/01/08 14:22:13;;;;;;;5.27;2.43;;;;;;;;;;5032595;28;20759;-63
2024/01/08 14:24:38;;;;;;;4.03;2.20;;;;;;;;;;5032535;28;20925;-63
2024/01/08 14:27:03;;;;;;;4.70;2.43;;;;;;;;;;5032371;28;20478;-63
2024/01/08 14:29:28;;;;;;;3.23;2.00;;;;;;;;;;5033430;28;20395;-63
2024/01/08 14:31:54;;;;;;;4.27;2.27;;;;;;;;;;5026563;28;20433;-63